Avoca, Nebraska
Current Conditions -  °F | °C
As of 5:35 PM on Saturday 22 Nov 2014 (Local Time) from KPMV Reporting Station
Overcast Overcast  
Wind Chill: 53°   Ceiling: 400
Heat Index: 53°   Visibility: 7mi
Dew Point: 51°   Wind: 14mph
Humidity: 91%   Direction: 160°SSE
Pressure: 29.64"   Gusts: NA
Location:  40.8°N, 96.12°W
Report Text: KPMV 222335Z AUTO 16012KT 7SM OVC004 12/10 A2964 RMK AO2 T01170103
Loading
Personal Weather Stations






























Interactive Weather Map New forecast layout! Learn more

10-Day Weather Forecast

Advertisements
Track Severe Weather on mobile